Time;durP1;ratioP1;P1;durP2;ratioP2;P2;SDS_P1;SDS_P2;PMS_P1;PMS_P2;Temp;Humidity;BMP_temperature;BMP_pressure;BME280_temperature;BME280_humidity;BME280_pressure;Samples;Min_cycle;Max_cycle;Signal;HPM_P1;HPM_P2
2023/12/06 00:00:03;;;;;;;27.94;21.94;;;;;;;;;;342844;28;927;-83
2023/12/06 00:00:14;;;;;;;27.80;22.17;;;;;;;;;;344127;28;1467;-83
2023/12/06 00:00:25;;;;;;;26.98;22.20;;;;;;;;;;343874;28;1358;-83
2023/12/06 00:00:35;;;;;;;25.73;21.90;;;;;;;;;;344177;28;871;-83
2023/12/06 00:00:46;;;;;;;25.30;22.05;;;;;;;;;;342672;28;1412;-83
2023/12/06 00:00:56;;;;;;;25.83;22.13;;;;;;;;;;342625;28;1260;-83
2023/12/06 00:01:07;;;;;;;27.42;22.75;;;;;;;;;;342513;28;1555;-83
2023/12/06 00:01:17;;;;;;;27.33;22.77;;;;;;;;;;342635;28;1180;-83
2023/12/06 00:01:27;;;;;;;27.52;23.05;;;;;;;;;;345390;28;1427;-83
2023/12/06 00:01:38;;;;;;;27.10;22.97;;;;;;;;;;342190;28;1910;-83
2023/12/06 00:01:48;;;;;;;27.88;23.23;;;;;;;;;;342713;28;868;-83
2023/12/06 00:01:59;;;;;;;27.23;23.43;;;;;;;;;;342811;28;890;-83
2023/12/06 00:02:09;;;;;;;27.88;23.23;;;;;;;;;;342454;28;1058;-83
2023/12/06 00:02:20;;;;;;;28.23;23.03;;;;;;;;;;341244;28;1252;-83
2023/12/06 00:02:32;;;;;;;28.83;23.02;;;;;;;;;;341352;28;1486;-83
2023/12/06 00:02:43;;;;;;;26.16;22.30;;;;;;;;;;341485;29;907;-83
2023/12/06 00:02:53;;;;;;;27.73;23.23;;;;;;;;;;341397;29;813;-83
2023/12/06 00:03:04;;;;;;;29.20;23.23;;;;;;;;;;340178;29;883;-83
2023/12/06 00:03:14;;;;;;;29.73;23.60;;;;;;;;;;338630;29;1431;-83
2023/12/06 00:03:25;;;;;;;27.63;22.65;;;;;;;;;;341303;29;947;-83
2023/12/06 00:03:35;;;;;;;26.77;22.70;;;;;;;;;;341408;28;1311;-83
2023/12/06 00:03:46;;;;;;;26.73;22.30;;;;;;;;;;341248;28;876;-83
2023/12/06 00:03:56;;;;;;;27.73;22.57;;;;;;;;;;341466;29;781;-83
2023/12/06 00:04:07;;;;;;;26.77;21.98;;;;;;;;;;342513;28;1649;-83
2023/12/06 00:04:17;;;;;;;26.97;21.93;;;;;;;;;;342510;28;1276;-82
2023/12/06 00:04:28;;;;;;;25.02;21.52;;;;;;;;;;342743;28;848;-83
2023/12/06 00:04:38;;;;;;;25.50;21.73;;;;;;;;;;342707;28;1299;-83
2023/12/06 00:04:49;;;;;;;25.48;21.42;;;;;;;;;;341216;29;1306;-83
2023/12/06 00:04:59;;;;;;;26.90;22.00;;;;;;;;;;341420;28;1278;-83
2023/12/06 00:05:10;;;;;;;26.65;21.88;;;;;;;;;;341168;28;1284;-83
2023/12/06 00:05:21;;;;;;;27.35;22.92;;;;;;;;;;341247;28;1228;-83
2023/12/06 00:05:32;;;;;;;27.27;23.10;;;;;;;;;;341367;28;1333;-83
2023/12/06 00:05:42;;;;;;;26.70;22.93;;;;;;;;;;341419;29;1305;-83
2023/12/06 00:05:53;;;;;;;27.35;22.77;;;;;;;;;;343928;28;1326;-83
2023/12/06 00:06:03;;;;;;;28.58;22.80;;;;;;;;;;341382;28;1279;-83
2023/12/06 00:06:14;;;;;;;28.87;22.67;;;;;;;;;;341198;29;856;-83
2023/12/06 00:06:24;;;;;;;27.52;22.02;;;;;;;;;;342666;28;797;-83
2023/12/06 00:06:35;;;;;;;26.63;22.23;;;;;;;;;;344088;28;1166;-83
2023/12/06 00:06:45;;;;;;;26.85;22.60;;;;;;;;;;345333;28;1236;-83
2023/12/06 00:06:56;;;;;;;27.20;22.77;;;;;;;;;;342692;28;1255;-83
2023/12/06 00:07:06;;;;;;;29.38;22.77;;;;;;;;;;338535;29;1587;-83
2023/12/06 00:07:17;;;;;;;30.40;22.73;;;;;;;;;;342588;28;1341;-83
2023/12/06 00:07:27;;;;;;;29.10;22.70;;;;;;;;;;341390;29;1326;-83
2023/12/06 00:07:38;;;;;;;28.17;22.67;;;;;;;;;;342707;28;1287;-83
2023/12/06 00:07:49;;;;;;;27.40;22.60;;;;;;;;;;340027;29;1426;-83
2023/12/06 00:07:59;;;;;;;28.13;22.73;;;;;;;;;;341473;29;824;-83
2023/12/06 00:08:10;;;;;;;28.35;22.63;;;;;;;;;;339900;29;940;-83
2023/12/06 00:08:20;;;;;;;29.03;23.23;;;;;;;;;;340026;29;888;-83
2023/12/06 00:08:31;;;;;;;29.58;23.30;;;;;;;;;;340103;29;916;-83
2023/12/06 00:08:41;;;;;;;28.60;23.03;;;;;;;;;;340167;29;924;-83
2023/12/06 00:08:52;;;;;;;28.35;21.83;;;;;;;;;;340068;29;963;-83
2023/12/06 00:09:03;;;;;;;27.13;21.88;;;;;;;;;;339671;29;873;-82
2023/12/06 00:09:13;;;;;;;27.03;22.30;;;;;;;;;;339891;29;875;-83
2023/12/06 00:09:24;;;;;;;30.75;22.45;;;;;;;;;;341225;29;1420;-83
2023/12/06 00:09:34;;;;;;;32.30;22.33;;;;;;;;;;340208;29;820;-83
2023/12/06 00:09:45;;;;;;;31.45;21.92;;;;;;;;;;340045;29;1334;-83
2023/12/06 00:09:55;;;;;;;26.23;22.67;;;;;;;;;;340006;29;1146;-83
2023/12/06 00:10:06;;;;;;;26.13;22.63;;;;;;;;;;341488;29;797;-83
2023/12/06 00:10:16;;;;;;;27.17;22.67;;;;;;;;;;343513;28;1425;-83
2023/12/06 00:10:27;;;;;;;27.13;22.43;;;;;;;;;;342645;28;1209;-83
2023/12/06 00:10:37;;;;;;;27.58;22.80;;;;;;;;;;342777;28;1442;-83
2023/12/06 00:10:48;;;;;;;27.42;22.85;;;;;;;;;;341286;28;1425;-83
2023/12/06 00:10:59;;;;;;;27.13;22.67;;;;;;;;;;340169;29;827;-83
2023/12/06 00:11:10;;;;;;;27.55;22.50;;;;;;;;;;341277;29;859;-83
2023/12/06 00:11:20;;;;;;;28.80;23.48;;;;;;;;;;341175;29;1200;-83
2023/12/06 00:11:31;;;;;;;31.03;24.07;;;;;;;;;;340070;28;869;-83
2023/12/06 00:11:41;;;;;;;32.17;24.40;;;;;;;;;;340148;29;1098;-83
2023/12/06 00:11:52;;;;;;;30.37;23.57;;;;;;;;;;338598;29;1195;-83
2023/12/06 00:12:02;;;;;;;28.77;23.57;;;;;;;;;;343973;28;1339;-83
2023/12/06 00:12:13;;;;;;;29.35;23.55;;;;;;;;;;342414;28;1363;-83
2023/12/06 00:12:23;;;;;;;29.63;23.80;;;;;;;;;;341356;29;769;-83
2023/12/06 00:12:34;;;;;;;27.88;22.98;;;;;;;;;;340207;29;829;-83
2023/12/06 00:12:44;;;;;;;27.47;22.77;;;;;;;;;;340057;29;1380;-83
2023/12/06 00:12:55;;;;;;;27.75;22.90;;;;;;;;;;340086;29;836;-83
2023/12/06 00:13:05;;;;;;;28.67;23.47;;;;;;;;;;340160;29;871;-83
2023/12/06 00:13:16;;;;;;;28.45;22.90;;;;;;;;;;338431;29;968;-83
2023/12/06 00:13:26;;;;;;;28.43;22.60;;;;;;;;;;340131;29;884;-83
2023/12/06 00:13:36;;;;;;;27.38;22.15;;;;;;;;;;340164;29;900;-83
2023/12/06 00:13:47;;;;;;;26.40;22.27;;;;;;;;;;341460;29;891;-83
2023/12/06 00:13:57;;;;;;;26.52;22.02;;;;;;;;;;341493;29;879;-85
2023/12/06 00:14:08;;;;;;;26.80;22.67;;;;;;;;;;341448;29;769;-83
2023/12/06 00:14:18;;;;;;;26.80;22.55;;;;;;;;;;340948;28;1331;-83
2023/12/06 00:14:29;;;;;;;27.20;23.17;;;;;;;;;;342856;28;836;-83
2023/12/06 00:14:39;;;;;;;27.65;22.77;;;;;;;;;;344166;28;839;-83
2023/12/06 00:14:50;;;;;;;28.13;22.93;;;;;;;;;;344054;28;812;-83
2023/12/06 00:15:00;;;;;;;29.25;22.70;;;;;;;;;;342751;28;808;-83
2023/12/06 00:15:11;;;;;;;30.23;22.73;;;;;;;;;;342457;28;840;-83
2023/12/06 00:15:21;;;;;;;29.85;23.05;;;;;;;;;;341402;29;864;-83
2023/12/06 00:15:32;;;;;;;28.50;23.42;;;;;;;;;;341500;29;863;-83
2023/12/06 00:15:43;;;;;;;29.33;23.50;;;;;;;;;;342768;28;940;-83
2023/12/06 00:15:53;;;;;;;30.13;22.97;;;;;;;;;;342743;28;876;-83
2023/12/06 00:16:04;;;;;;;29.92;22.88;;;;;;;;;;342758;28;883;-83
2023/12/06 00:16:15;;;;;;;28.85;23.02;;;;;;;;;;339790;29;964;-83
2023/12/06 00:16:25;;;;;;;29.47;23.03;;;;;;;;;;340922;29;847;-83
2023/12/06 00:16:39;;;;;;;29.45;22.90;;;;;;;;;;341502;29;821;-83
2023/12/06 00:16:49;;;;;;;27.98;23.13;;;;;;;;;;342710;28;904;-83
2023/12/06 00:17:00;;;;;;;28.53;23.40;;;;;;;;;;342813;28;864;-83
2023/12/06 00:17:10;;;;;;;28.42;23.20;;;;;;;;;;341377;29;876;-83
2023/12/06 00:17:21;;;;;;;29.23;23.87;;;;;;;;;;341344;29;989;-83
2023/12/06 00:17:31;;;;;;;29.10;23.85;;;;;;;;;;338873;29;876;-83
2023/12/06 00:17:42;;;;;;;29.03;23.93;;;;;;;;;;338875;29;832;-83
2023/12/06 00:17:52;;;;;;;27.20;22.90;;;;;;;;;;340104;29;899;-83
2023/12/06 00:18:03;;;;;;;26.50;22.93;;;;;;;;;;340137;29;940;-83
2023/12/06 00:18:13;;;;;;;27.55;23.23;;;;;;;;;;341107;29;793;-83
2023/12/06 00:18:24;;;;;;;28.07;23.30;;;;;;;;;;341342;29;904;-83
2023/12/06 00:18:34;;;;;;;28.08;23.00;;;;;;;;;;340114;29;827;-83
2023/12/06 00:18:45;;;;;;;27.13;22.83;;;;;;;;;;340169;29;927;-83
2023/12/06 00:18:56;;;;;;;27.55;23.10;;;;;;;;;;340143;29;970;-83
2023/12/06 00:19:07;;;;;;;27.00;22.57;;;;;;;;;;340098;29;1041;-83
2023/12/06 00:19:17;;;;;;;26.27;22.10;;;;;;;;;;339692;29;920;-83
2023/12/06 00:19:27;;;;;;;26.17;22.43;;;;;;;;;;340175;29;899;-83
2023/12/06 00:19:38;;;;;;;26.48;23.25;;;;;;;;;;341491;29;900;-83
2023/12/06 00:19:48;;;;;;;27.37;23.97;;;;;;;;;;340107;29;812;-83
2023/12/06 00:19:59;;;;;;;29.13;24.83;;;;;;;;;;342774;28;869;-83
2023/12/06 00:20:10;;;;;;;29.47;24.43;;;;;;;;;;342684;28;875;-83
2023/12/06 00:20:20;;;;;;;29.85;24.35;;;;;;;;;;339836;29;852;-83
2023/12/06 00:20:31;;;;;;;29.67;24.15;;;;;;;;;;340059;29;871;-83
2023/12/06 00:20:41;;;;;;;30.43;24.90;;;;;;;;;;342717;28;1316;-83
2023/12/06 00:20:52;;;;;;;30.23;24.90;;;;;;;;;;343981;28;1388;-86
2023/12/06 00:21:02;;;;;;;30.03;24.70;;;;;;;;;;341397;28;1416;-83
2023/12/06 00:21:13;;;;;;;29.40;24.00;;;;;;;;;;343625;28;1284;-83
2023/12/06 00:21:23;;;;;;;29.48;23.58;;;;;;;;;;344098;28;835;-83
2023/12/06 00:21:34;;;;;;;29.47;23.47;;;;;;;;;;345429;28;1910;-83
2023/12/06 00:21:44;;;;;;;29.98;23.23;;;;;;;;;;342687;28;1188;-83
2023/12/06 00:21:55;;;;;;;30.60;23.50;;;;;;;;;;341418;29;983;-83
2023/12/06 00:22:05;;;;;;;31.20;24.40;;;;;;;;;;342793;28;864;-83
2023/12/06 00:22:16;;;;;;;30.97;25.07;;;;;;;;;;339590;29;1254;-83
2023/12/06 00:22:26;;;;;;;30.95;25.02;;;;;;;;;;341952;28;1360;-83
2023/12/06 00:22:36;;;;;;;30.70;24.87;;;;;;;;;;341207;28;1048;-85
2023/12/06 00:22:47;;;;;;;31.95;25.38;;;;;;;;;;340290;29;1397;-84
2023/12/06 00:22:57;;;;;;;30.83;25.77;;;;;;;;;;341403;29;868;-83
2023/12/06 00:23:08;;;;;;;31.13;25.30;;;;;;;;;;343377;28;1279;-83
2023/12/06 00:23:18;;;;;;;29.63;24.57;;;;;;;;;;340844;28;1364;-83
2023/12/06 00:23:29;;;;;;;29.67;24.17;;;;;;;;;;342832;28;883;-86
2023/12/06 00:23:39;;;;;;;27.93;23.77;;;;;;;;;;341281;28;1274;-86
2023/12/06 00:23:50;;;;;;;27.40;23.45;;;;;;;;;;337847;29;1206;-83
2023/12/06 00:24:00;;;;;;;28.53;23.47;;;;;;;;;;341484;29;805;-87
2023/12/06 00:24:11;;;;;;;29.25;23.98;;;;;;;;;;342507;28;1286;-87
2023/12/06 00:24:21;;;;;;;29.47;23.80;;;;;;;;;;339649;29;1213;-84
2023/12/06 00:24:32;;;;;;;28.27;23.80;;;;;;;;;;340066;29;1189;-83
2023/12/06 00:24:42;;;;;;;28.27;23.57;;;;;;;;;;341327;29;938;-86
2023/12/06 00:24:53;;;;;;;28.27;23.73;;;;;;;;;;342597;28;1335;-85
2023/12/06 00:25:05;;;;;;;29.08;24.27;;;;;;;;;;342702;28;1311;-86
2023/12/06 00:25:16;;;;;;;28.90;24.27;;;;;;;;;;340933;28;1379;-83
2023/12/06 00:25:27;;;;;;;28.30;23.98;;;;;;;;;;342791;28;879;-84
2023/12/06 00:25:37;;;;;;;28.92;23.92;;;;;;;;;;342702;28;1482;-86
2023/12/06 00:25:48;;;;;;;29.20;23.67;;;;;;;;;;342247;28;1189;-83
2023/12/06 00:25:59;;;;;;;30.90;24.23;;;;;;;;;;342821;28;899;-84
2023/12/06 00:26:09;;;;;;;29.90;24.38;;;;;;;;;;344038;28;922;-87
2023/12/06 00:26:20;;;;;;;29.90;24.65;;;;;;;;;;342484;28;911;-86
2023/12/06 00:26:30;;;;;;;28.40;23.93;;;;;;;;;;342653;28;836;-84
2023/12/06 00:26:43;;;;;;;28.70;23.55;;;;;;;;;;343832;28;1408;-84
2023/12/06 00:26:53;;;;;;;28.25;23.45;;;;;;;;;;344086;28;911;-86
2023/12/06 00:27:04;;;;;;;28.90;23.67;;;;;;;;;;341428;29;855;-85
2023/12/06 00:27:14;;;;;;;29.05;24.13;;;;;;;;;;342530;28;812;-84
2023/12/06 00:27:25;;;;;;;30.23;24.27;;;;;;;;;;341299;29;837;-84
2023/12/06 00:27:37;;;;;;;31.97;25.10;;;;;;;;;;341515;29;934;-86
2023/12/06 00:27:48;;;;;;;32.60;24.98;;;;;;;;;;343439;28;1228;-84
2023/12/06 00:27:58;;;;;;;30.77;24.33;;;;;;;;;;342822;28;954;-87
2023/12/06 00:28:09;;;;;;;30.00;24.33;;;;;;;;;;342820;28;1487;-84
2023/12/06 00:28:19;;;;;;;30.50;25.30;;;;;;;;;;343578;28;1390;-87
2023/12/06 00:28:30;;;;;;;32.22;25.63;;;;;;;;;;341177;29;1312;-84
2023/12/06 00:28:40;;;;;;;31.47;25.27;;;;;;;;;;342505;28;1328;-86
2023/12/06 00:28:53;;;;;;;30.85;24.33;;;;;;;;;;341435;29;828;-87
2023/12/06 00:29:03;;;;;;;30.08;24.00;;;;;;;;;;342746;28;903;-84
2023/12/06 00:29:14;;;;;;;31.17;24.30;;;;;;;;;;343936;28;875;-85
2023/12/06 00:29:24;;;;;;;31.38;25.30;;;;;;;;;;343741;28;859;-86
2023/12/06 00:29:35;;;;;;;30.93;25.90;;;;;;;;;;344186;28;863;-87
2023/12/06 00:29:45;;;;;;;30.80;26.13;;;;;;;;;;343773;28;1351;-84
2023/12/06 00:29:56;;;;;;;30.27;25.80;;;;;;;;;;343667;28;1004;-83
2023/12/06 00:30:07;;;;;;;30.35;25.80;;;;;;;;;;342526;28;1329;-84
2023/12/06 00:30:18;;;;;;;29.65;24.85;;;;;;;;;;342305;28;1883;-83
2023/12/06 00:30:28;;;;;;;30.00;24.85;;;;;;;;;;344029;28;891;-85
2023/12/06 00:30:39;;;;;;;30.93;24.83;;;;;;;;;;343841;28;1339;-84
2023/12/06 00:30:49;;;;;;;31.98;26.02;;;;;;;;;;339988;28;1308;-83
2023/12/06 00:31:00;;;;;;;32.70;27.03;;;;;;;;;;342830;28;844;-84
2023/12/06 00:31:10;;;;;;;33.20;27.13;;;;;;;;;;342426;28;840;-83
2023/12/06 00:31:21;;;;;;;32.55;26.10;;;;;;;;;;340916;28;899;-84
2023/12/06 00:31:31;;;;;;;32.07;25.17;;;;;;;;;;341456;29;935;-84
2023/12/06 00:31:42;;;;;;;30.80;25.42;;;;;;;;;;342794;28;879;-85
2023/12/06 00:31:52;;;;;;;30.73;26.00;;;;;;;;;;342744;28;894;-87
2023/12/06 00:32:03;;;;;;;31.23;26.20;;;;;;;;;;342626;28;1197;-87
2023/12/06 00:32:13;;;;;;;30.30;25.87;;;;;;;;;;342652;28;1032;-86
2023/12/06 00:32:24;;;;;;;28.30;24.98;;;;;;;;;;342489;28;878;-89
2023/12/06 00:32:34;;;;;;;29.97;26.20;;;;;;;;;;341363;29;883;-84
2023/12/06 00:32:45;;;;;;;31.65;26.20;;;;;;;;;;342755;28;883;-84
2023/12/06 00:32:55;;;;;;;32.97;26.50;;;;;;;;;;341325;29;1396;-86
2023/12/06 00:33:06;;;;;;;31.08;25.02;;;;;;;;;;342758;28;846;-88
2023/12/06 00:33:16;;;;;;;30.63;25.05;;;;;;;;;;342700;28;831;-83
2023/12/06 00:33:28;;;;;;;30.83;25.23;;;;;;;;;;342583;28;835;-89
2023/12/06 00:33:38;;;;;;;31.10;25.80;;;;;;;;;;342788;28;883;-89
2023/12/06 00:33:49;;;;;;;31.50;25.57;;;;;;;;;;344073;28;874;-89
2023/12/06 00:33:59;;;;;;;31.60;25.10;;;;;;;;;;344183;28;855;-84
2023/12/06 00:34:10;;;;;;;31.53;24.87;;;;;;;;;;344108;28;870;-86
2023/12/06 00:34:20;;;;;;;30.65;24.23;;;;;;;;;;342446;28;1028;-88
2023/12/06 00:34:31;;;;;;;29.55;24.25;;;;;;;;;;338703;29;888;-88
2023/12/06 00:34:41;;;;;;;30.67;25.10;;;;;;;;;;338722;29;836;-84
2023/12/06 00:34:52;;;;;;;29.95;25.50;;;;;;;;;;340050;29;926;-85
2023/12/06 00:35:03;;;;;;;30.67;25.30;;;;;;;;;;340169;29;768;-88
2023/12/06 00:35:14;;;;;;;30.27;25.08;;;;;;;;;;342366;28;1307;-83
2023/12/06 00:35:24;;;;;;;32.13;25.20;;;;;;;;;;343821;28;843;-88
2023/12/06 00:35:35;;;;;;;31.25;24.90;;;;;;;;;;342739;28;1017;-87
2023/12/06 00:35:45;;;;;;;30.90;24.77;;;;;;;;;;342779;28;867;-87
2023/12/06 00:35:56;;;;;;;30.20;24.52;;;;;;;;;;344023;28;827;-88
2023/12/06 00:36:07;;;;;;;30.63;25.13;;;;;;;;;;342597;28;911;-87
2023/12/06 00:36:17;;;;;;;29.33;24.70;;;;;;;;;;342654;28;824;-85
2023/12/06 00:36:29;;;;;;;28.80;23.98;;;;;;;;;;341183;29;812;-88
2023/12/06 00:36:39;;;;;;;30.40;23.80;;;;;;;;;;340042;29;931;-84
2023/12/06 00:36:50;;;;;;;30.77;24.23;;;;;;;;;;341317;29;1326;-89
2023/12/06 00:37:00;;;;;;;30.87;25.03;;;;;;;;;;342673;28;1352;-85
2023/12/06 00:37:11;;;;;;;29.48;25.15;;;;;;;;;;344113;28;855;-84
2023/12/06 00:37:21;;;;;;;29.27;25.13;;;;;;;;;;340590;28;1181;-83
2023/12/06 00:37:32;;;;;;;28.10;24.43;;;;;;;;;;341439;29;879;-87
2023/12/06 00:37:42;;;;;;;28.75;24.17;;;;;;;;;;341479;29;812;-86
2023/12/06 00:37:53;;;;;;;30.03;24.20;;;;;;;;;;342761;28;835;-86
2023/12/06 00:38:03;;;;;;;30.80;24.60;;;;;;;;;;342786;28;890;-84
2023/12/06 00:38:14;;;;;;;30.03;25.27;;;;;;;;;;340088;29;832;-84
2023/12/06 00:38:25;;;;;;;30.80;25.45;;;;;;;;;;343856;28;851;-84
2023/12/06 00:38:35;;;;;;;30.13;24.73;;;;;;;;;;342363;28;886;-83
2023/12/06 00:38:46;;;;;;;29.35;24.38;;;;;;;;;;343963;28;835;-83
2023/12/06 00:38:56;;;;;;;28.83;25.03;;;;;;;;;;342802;28;919;-84
2023/12/06 00:39:08;;;;;;;29.02;25.30;;;;;;;;;;341361;29;851;-87
2023/12/06 00:39:18;;;;;;;29.05;24.85;;;;;;;;;;341441;29;852;-86
2023/12/06 00:39:29;;;;;;;28.58;24.60;;;;;;;;;;341199;29;863;-87
2023/12/06 00:39:39;;;;;;;28.83;24.87;;;;;;;;;;342716;28;768;-84
2023/12/06 00:39:50;;;;;;;29.38;25.05;;;;;;;;;;342704;28;907;-84
2023/12/06 00:40:00;;;;;;;29.87;25.40;;;;;;;;;;345361;28;1306;-84
2023/12/06 00:40:11;;;;;;;30.00;25.30;;;;;;;;;;344047;28;899;-83
2023/12/06 00:40:22;;;;;;;30.55;25.60;;;;;;;;;;342399;28;895;-83
2023/12/06 00:40:32;;;;;;;31.27;25.27;;;;;;;;;;340074;29;800;-84
2023/12/06 00:40:44;;;;;;;30.73;25.20;;;;;;;;;;340036;29;886;-87
2023/12/06 00:40:54;;;;;;;30.30;24.73;;;;;;;;;;341409;29;867;-86
2023/12/06 00:41:05;;;;;;;30.65;24.73;;;;;;;;;;342674;28;974;-85
2023/12/06 00:41:16;;;;;;;31.48;25.00;;;;;;;;;;343994;28;942;-84
2023/12/06 00:41:27;;;;;;;30.90;24.67;;;;;;;;;;341145;29;1165;-87
2023/12/06 00:41:37;;;;;;;30.33;24.83;;;;;;;;;;343909;28;1910;-84
2023/12/06 00:41:48;;;;;;;28.77;24.37;;;;;;;;;;343926;28;1343;-84
2023/12/06 00:41:59;;;;;;;28.50;24.40;;;;;;;;;;341326;29;1111;-83
2023/12/06 00:42:09;;;;;;;28.40;24.05;;;;;;;;;;342660;28;1358;-84
2023/12/06 00:42:20;;;;;;;29.23;24.25;;;;;;;;;;345255;28;1232;-86
2023/12/06 00:42:30;;;;;;;29.73;24.10;;;;;;;;;;342429;28;1221;-83
2023/12/06 00:42:41;;;;;;;30.63;24.55;;;;;;;;;;342637;28;871;-86
2023/12/06 00:42:51;;;;;;;32.37;24.80;;;;;;;;;;341161;29;839;-83
2023/12/06 00:43:03;;;;;;;31.42;24.20;;;;;;;;;;343974;28;1322;-86
2023/12/06 00:43:14;;;;;;;31.23;24.33;;;;;;;;;;344105;28;919;-83
2023/12/06 00:43:24;;;;;;;29.38;24.17;;;;;;;;;;341095;28;1282;-83
2023/12/06 00:43:34;;;;;;;31.23;25.00;;;;;;;;;;341494;29;843;-83
2023/12/06 00:43:45;;;;;;;31.40;25.10;;;;;;;;;;341411;28;1287;-83
2023/12/06 00:43:55;;;;;;;30.93;25.27;;;;;;;;;;344266;28;1160;-83
2023/12/06 00:44:07;;;;;;;29.80;24.63;;;;;;;;;;340327;29;785;-83
2023/12/06 00:44:17;;;;;;;30.52;25.10;;;;;;;;;;340182;29;1411;-83
2023/12/06 00:44:28;;;;;;;30.27;24.80;;;;;;;;;;341426;29;1166;-83
2023/12/06 00:44:38;;;;;;;29.77;24.88;;;;;;;;;;341555;29;1386;-83
2023/12/06 00:44:49;;;;;;;29.20;24.33;;;;;;;;;;341584;29;919;-83
2023/12/06 00:44:59;;;;;;;30.25;24.63;;;;;;;;;;342868;28;1567;-83
2023/12/06 00:45:10;;;;;;;29.97;24.47;;;;;;;;;;342915;28;1206;-83
2023/12/06 00:45:20;;;;;;;28.45;23.88;;;;;;;;;;342874;28;1308;-83
2023/12/06 00:45:31;;;;;;;28.90;23.80;;;;;;;;;;342712;28;1189;-83
2023/12/06 00:45:41;;;;;;;29.25;24.10;;;;;;;;;;340332;29;1372;-83
2023/12/06 00:45:53;;;;;;;30.30;24.37;;;;;;;;;;341598;29;1468;-83
2023/12/06 00:46:04;;;;;;;28.98;24.23;;;;;;;;;;342526;28;944;-82
2023/12/06 00:46:14;;;;;;;27.63;24.02;;;;;;;;;;342953;28;1328;-83
2023/12/06 00:46:25;;;;;;;27.58;23.95;;;;;;;;;;341292;29;1305;-83
2023/12/06 00:46:36;;;;;;;27.60;23.43;;;;;;;;;;342911;28;1506;-83
2023/12/06 00:46:46;;;;;;;28.38;23.20;;;;;;;;;;345542;28;1196;-83
2023/12/06 00:46:57;;;;;;;29.43;23.23;;;;;;;;;;346972;28;1506;-83
2023/12/06 00:47:07;;;;;;;29.55;23.40;;;;;;;;;;342974;28;915;-83
2023/12/06 00:47:18;;;;;;;29.85;23.52;;;;;;;;;;344291;28;875;-83
2023/12/06 00:47:28;;;;;;;29.07;24.37;;;;;;;;;;344180;28;890;-83
2023/12/06 00:47:39;;;;;;;29.38;24.23;;;;;;;;;;345745;28;831;-83
2023/12/06 00:47:49;;;;;;;30.40;24.53;;;;;;;;;;342798;28;1266;-83
2023/12/06 00:48:00;;;;;;;29.38;23.45;;;;;;;;;;338915;29;1173;-83
2023/12/06 00:48:10;;;;;;;28.77;23.87;;;;;;;;;;342871;28;1356;-83
2023/12/06 00:48:21;;;;;;;28.27;24.13;;;;;;;;;;342889;28;1390;-83
2023/12/06 00:48:31;;;;;;;27.83;23.97;;;;;;;;;;344052;28;1305;-83
2023/12/06 00:48:42;;;;;;;27.80;23.90;;;;;;;;;;345710;28;858;-83
2023/12/06 00:48:52;;;;;;;27.47;23.67;;;;;;;;;;342899;28;863;-83
2023/12/06 00:49:03;;;;;;;29.20;24.53;;;;;;;;;;342978;28;906;-83
2023/12/06 00:49:14;;;;;;;29.52;24.58;;;;;;;;;;343079;28;844;-83
2023/12/06 00:49:24;;;;;;;29.48;24.88;;;;;;;;;;342729;28;824;-83
2023/12/06 00:49:35;;;;;;;29.03;24.33;;;;;;;;;;344424;28;883;-83
2023/12/06 00:49:45;;;;;;;28.38;24.02;;;;;;;;;;343032;28;820;-83
2023/12/06 00:49:56;;;;;;;28.05;23.40;;;;;;;;;;341555;29;677;-83
2023/12/06 00:50:07;;;;;;;29.03;23.87;;;;;;;;;;341743;29;839;-83
2023/12/06 00:50:17;;;;;;;28.77;23.88;;;;;;;;;;341542;29;1454;-83
2023/12/06 00:50:28;;;;;;;28.53;24.03;;;;;;;;;;340160;29;848;-83
2023/12/06 00:50:38;;;;;;;28.67;24.10;;;;;;;;;;340295;28;1185;-83
2023/12/06 00:50:49;;;;;;;30.83;24.48;;;;;;;;;;342790;28;1357;-83
2023/12/06 00:51:01;;;;;;;31.87;24.57;;;;;;;;;;341537;28;1492;-83
2023/12/06 00:51:12;;;;;;;31.55;24.90;;;;;;;;;;341624;28;1268;-83
2023/12/06 00:51:22;;;;;;;30.47;24.80;;;;;;;;;;342989;28;820;-83
2023/12/06 00:51:33;;;;;;;29.58;24.30;;;;;;;;;;342701;28;1254;-83
2023/12/06 00:51:43;;;;;;;29.93;24.03;;;;;;;;;;342925;28;1231;-83
2023/12/06 00:51:54;;;;;;;28.85;23.92;;;;;;;;;;342684;28;1189;-83
2023/12/06 00:52:05;;;;;;;28.57;24.20;;;;;;;;;;341524;29;1198;-83
2023/12/06 00:52:15;;;;;;;28.92;24.08;;;;;;;;;;342546;28;1507;-83
2023/12/06 00:52:25;;;;;;;29.63;23.85;;;;;;;;;;344065;28;914;-83
2023/12/06 00:52:36;;;;;;;29.53;23.30;;;;;;;;;;344311;28;1391;-87
2023/12/06 00:52:47;;;;;;;30.33;23.42;;;;;;;;;;342935;28;867;-83
2023/12/06 00:52:57;;;;;;;31.23;24.10;;;;;;;;;;340183;29;1276;-83
2023/12/06 00:53:07;;;;;;;30.98;23.80;;;;;;;;;;344155;28;1287;-83
2023/12/06 00:53:18;;;;;;;30.53;23.10;;;;;;;;;;342872;28;1275;-83
2023/12/06 00:53:30;;;;;;;29.80;22.63;;;;;;;;;;340998;28;1400;-87
2023/12/06 00:53:40;;;;;;;30.02;23.67;;;;;;;;;;342950;28;1349;-83
2023/12/06 00:53:51;;;;;;;30.20;24.20;;;;;;;;;;341456;29;1259;-83
2023/12/06 00:54:01;;;;;;;30.02;24.45;;;;;;;;;;341630;28;935;-83
2023/12/06 00:54:12;;;;;;;28.77;24.70;;;;;;;;;;341682;29;800;-83
2023/12/06 00:54:22;;;;;;;28.35;24.75;;;;;;;;;;344223;28;1173;-83
2023/12/06 00:54:33;;;;;;;29.13;24.47;;;;;;;;;;342755;28;1365;-83
2023/12/06 00:54:43;;;;;;;28.90;24.02;;;;;;;;;;342782;28;1317;-83
2023/12/06 00:54:53;;;;;;;28.40;23.77;;;;;;;;;;344008;28;1152;-83
2023/12/06 00:55:05;;;;;;;28.63;23.55;;;;;;;;;;344206;28;1152;-83
2023/12/06 00:55:15;;;;;;;30.02;23.92;;;;;;;;;;344299;28;1403;-83
2023/12/06 00:55:26;;;;;;;30.70;24.30;;;;;;;;;;344252;28;1297;-83
2023/12/06 00:55:36;;;;;;;30.02;24.00;;;;;;;;;;345754;28;831;-83
2023/12/06 00:55:47;;;;;;;29.13;23.63;;;;;;;;;;341544;28;1196;-83
2023/12/06 00:55:57;;;;;;;28.42;23.75;;;;;;;;;;340119;29;1161;-83
2023/12/06 00:56:14;;;;;;;30.43;24.27;;;;;;;;;;343006;28;1499;-87
2023/12/06 00:56:24;;;;;;;30.30;24.65;;;;;;;;;;341463;29;1589;-83
2023/12/06 00:56:35;;;;;;;29.25;24.90;;;;;;;;;;342668;28;1330;-83
2023/12/06 00:56:45;;;;;;;29.73;25.27;;;;;;;;;;340338;29;1178;-83
2023/12/06 00:56:56;;;;;;;29.57;24.50;;;;;;;;;;341417;29;1260;-83
2023/12/06 00:57:07;;;;;;;29.80;24.45;;;;;;;;;;341716;29;915;-83
2023/12/06 00:57:17;;;;;;;29.13;24.45;;;;;;;;;;341678;29;907;-83
2023/12/06 00:57:28;;;;;;;29.40;24.50;;;;;;;;;;342796;28;796;-83
2023/12/06 00:57:38;;;;;;;29.58;24.40;;;;;;;;;;344402;28;812;-83
2023/12/06 00:57:49;;;;;;;30.07;24.47;;;;;;;;;;344015;28;1273;-83
2023/12/06 00:57:59;;;;;;;29.63;24.02;;;;;;;;;;342814;28;1344;-83
2023/12/06 00:58:10;;;;;;;30.23;24.40;;;;;;;;;;344322;28;1271;-83
2023/12/06 00:58:20;;;;;;;29.13;24.02;;;;;;;;;;341510;28;1181;-83
2023/12/06 00:58:31;;;;;;;28.70;24.33;;;;;;;;;;341371;29;1273;-83
2023/12/06 00:58:44;;;;;;;30.20;24.27;;;;;;;;;;344337;28;1410;-83
2023/12/06 00:58:55;;;;;;;33.13;24.25;;;;;;;;;;342768;28;1248;-82
2023/12/06 00:59:05;;;;;;;32.30;23.33;;;;;;;;;;341599;28;1161;-83
2023/12/06 00:59:16;;;;;;;28.00;22.85;;;;;;;;;;341667;29;773;-83
2023/12/06 00:59:26;;;;;;;27.60;24.00;;;;;;;;;;342988;28;1504;-83
2023/12/06 00:59:37;;;;;;;27.75;24.50;;;;;;;;;;340204;29;904;-83
2023/12/06 00:59:47;;;;;;;29.30;25.00;;;;;;;;;;342905;28;1180;-83
2023/12/06 00:59:58;;;;;;;30.95;24.92;;;;;;;;;;341447;29;1298;-83
2023/12/06 01:00:10;;;;;;;31.73;25.00;;;;;;;;;;340291;29;1240;-83
2023/12/06 01:00:20;;;;;;;31.45;24.60;;;;;;;;;;340296;29;931;-83
2023/12/06 01:00:31;;;;;;;29.92;24.35;;;;;;;;;;342716;28;1232;-83
2023/12/06 01:00:41;;;;;;;28.63;24.23;;;;;;;;;;341734;29;848;-83
2023/12/06 01:00:52;;;;;;;29.03;24.07;;;;;;;;;;341144;29;808;-83
2023/12/06 01:01:02;;;;;;;28.73;23.67;;;;;;;;;;340172;29;1280;-83
2023/12/06 01:01:13;;;;;;;30.53;24.60;;;;;;;;;;340350;29;856;-83
2023/12/06 01:01:23;;;;;;;30.80;25.05;;;;;;;;;;341532;29;1536;-83
2023/12/06 01:01:34;;;;;;;30.53;25.17;;;;;;;;;;341386;28;1188;-83
2023/12/06 01:01:44;;;;;;;30.00;24.83;;;;;;;;;;341534;29;1976;-83
2023/12/06 01:01:55;;;;;;;29.90;24.83;;;;;;;;;;341362;29;1430;-83
2023/12/06 01:02:05;;;;;;;29.85;25.05;;;;;;;;;;342829;28;1270;-83
2023/12/06 01:02:16;;;;;;;30.90;25.23;;;;;;;;;;341532;29;1157;-83
2023/12/06 01:02:27;;;;;;;31.63;25.00;;;;;;;;;;342938;28;1446;-83
2023/12/06 01:02:40;;;;;;;32.13;24.98;;;;;;;;;;344011;28;1255;-83
2023/12/06 01:02:50;;;;;;;29.25;23.42;;;;;;;;;;345604;28;941;-83
2023/12/06 01:03:01;;;;;;;28.10;23.33;;;;;;;;;;344226;28;1421;-83
2023/12/06 01:03:11;;;;;;;27.80;24.23;;;;;;;;;;340268;29;1288;-83
2023/12/06 01:03:22;;;;;;;28.30;24.95;;;;;;;;;;344224;28;1176;-83
2023/12/06 01:03:32;;;;;;;29.33;24.77;;;;;;;;;;341367;28;1169;-83
2023/12/06 01:03:43;;;;;;;29.70;24.10;;;;;;;;;;342934;28;1310;-83
2023/12/06 01:03:54;;;;;;;29.30;24.23;;;;;;;;;;342778;28;1367;-83
2023/12/06 01:04:04;;;;;;;27.83;23.83;;;;;;;;;;343016;28;871;-83
2023/12/06 01:04:15;;;;;;;28.37;23.93;;;;;;;;;;344240;28;1243;-83